createdAt,value
2023-02-26T00:01:31.010Z,3.18
2023-02-26T00:04:01.847Z,3.20
2023-02-26T00:06:31.317Z,3.21
2023-02-26T00:08:58.241Z,3.19
2023-02-26T00:11:25.326Z,3.09
2023-02-26T00:13:52.664Z,3.12
2023-02-26T00:16:35.061Z,3.03
2023-02-26T00:19:04.987Z,3.04
2023-02-26T00:21:33.368Z,2.95
2023-02-26T00:24:01.984Z,2.91
2023-02-26T00:26:31.194Z,2.84
2023-02-26T00:28:58.398Z,2.90
2023-02-26T00:31:25.483Z,2.92
2023-02-26T00:33:54.273Z,2.93
2023-02-26T00:36:29.164Z,2.88
2023-02-26T00:39:07.323Z,2.88
2023-02-26T00:41:36.217Z,2.80
2023-02-26T00:44:03.650Z,2.90
2023-02-26T00:46:37.070Z,2.80
2023-02-26T00:49:16.918Z,2.84
2023-02-26T00:51:51.720Z,2.93
2023-02-26T00:54:23.080Z,2.91
2023-02-26T00:56:53.109Z,2.81
2023-02-26T00:59:21.962Z,2.62
2023-02-26T01:01:49.536Z,2.66
2023-02-26T01:04:18.798Z,2.71
2023-02-26T01:06:48.874Z,2.67
2023-02-26T01:09:26.643Z,2.60
2023-02-26T01:11:55.494Z,2.49
2023-02-26T01:14:22.751Z,2.64
2023-02-26T01:17:04.262Z,2.65
2023-02-26T01:19:54.315Z,2.57
2023-02-26T01:22:26.150Z,2.68
2023-02-26T01:25:00.175Z,2.55
2023-02-26T01:27:26.944Z,2.57
2023-02-26T01:29:54.430Z,2.49
2023-02-26T01:32:57.111Z,2.53
2023-02-26T01:35:36.861Z,2.27
2023-02-26T01:38:13.586Z,2.50
2023-02-26T01:40:52.484Z,2.57
2023-02-26T01:43:27.186Z,2.52
2023-02-26T01:46:04.064Z,2.55
2023-02-26T01:48:38.533Z,2.55
2023-02-26T01:51:05.709Z,2.58
2023-02-26T01:53:32.542Z,2.53
2023-02-26T01:56:04.745Z,2.51
2023-02-26T01:58:35.677Z,2.46
2023-02-26T02:01:03.643Z,2.52
2023-02-26T02:03:33.832Z,2.50
2023-02-26T02:06:06.203Z,2.53
2023-02-26T02:08:35.735Z,2.48
2023-02-26T02:11:07.034Z,2.61
2023-02-26T02:13:49.370Z,2.61
2023-02-26T02:16:35.062Z,2.52
2023-02-26T02:19:30.392Z,2.41
2023-02-26T02:22:26.253Z,2.50
2023-02-26T02:25:04.186Z,2.47
2023-02-26T02:27:40.144Z,2.43
2023-02-26T02:30:19.945Z,2.24
2023-02-26T02:32:52.336Z,2.31
2023-02-26T02:35:29.133Z,2.35
2023-02-26T02:38:08.348Z,2.40
2023-02-26T02:40:41.522Z,2.39
2023-02-26T02:43:16.015Z,2.46
2023-02-26T02:45:49.642Z,2.32
2023-02-26T02:48:38.755Z,2.34
2023-02-26T02:51:18.840Z,2.35
2023-02-26T02:53:52.954Z,2.31
2023-02-26T02:56:41.996Z,2.27
2023-02-26T02:59:42.368Z,2.10
2023-02-26T03:02:25.828Z,2.25
2023-02-26T03:04:52.590Z,2.24
2023-02-26T03:07:19.319Z,2.21
2023-02-26T03:09:51.604Z,2.21
2023-02-26T03:12:18.377Z,2.27
2023-02-26T03:14:46.272Z,2.15
2023-02-26T03:17:34.965Z,2.01
2023-02-26T03:20:24.188Z,2.15
2023-02-26T03:23:04.985Z,2.13
2023-02-26T03:25:45.901Z,2.11
2023-02-26T03:28:43.478Z,2.09
2023-02-26T03:31:35.906Z,2.05
2023-02-26T03:34:25.967Z,1.97
2023-02-26T03:36:59.232Z,1.92
2023-02-26T03:39:35.626Z,2.07
2023-02-26T03:42:06.752Z,2.15
2023-02-26T03:44:47.046Z,1.97
2023-02-26T03:47:15.838Z,2.01
2023-02-26T03:50:02.950Z,2.03
2023-02-26T03:52:36.268Z,1.96
2023-02-26T03:55:42.708Z,1.82
2023-02-26T03:58:27.570Z,1.87
2023-02-26T04:01:34.289Z,1.89
2023-02-26T04:04:13.177Z,1.93
2023-02-26T04:06:40.910Z,1.76
2023-02-26T04:09:08.287Z,1.82
2023-02-26T04:11:38.196Z,1.81
2023-02-26T04:14:05.105Z,1.88
2023-02-26T04:16:37.643Z,1.87
2023-02-26T04:19:04.597Z,1.72
2023-02-26T04:21:31.495Z,1.69
2023-02-26T04:23:58.145Z,1.71
2023-02-26T04:26:25.238Z,1.72
2023-02-26T04:28:52.107Z,1.65
2023-02-26T04:31:19.758Z,1.64
2023-02-26T04:33:47.482Z,1.68
2023-02-26T04:36:14.799Z,1.68
2023-02-26T04:38:41.681Z,1.71
2023-02-26T04:41:09.028Z,1.57
2023-02-26T04:43:37.647Z,1.59
2023-02-26T04:46:15.909Z,1.54
2023-02-26T04:48:42.823Z,1.52
2023-02-26T04:51:09.675Z,1.46
2023-02-26T04:53:38.421Z,1.51
2023-02-26T04:56:10.175Z,1.47
2023-02-26T04:58:37.142Z,1.46
2023-02-26T05:01:09.112Z,1.51
2023-02-26T05:03:36.483Z,1.45
2023-02-26T05:06:03.557Z,1.37
2023-02-26T05:08:32.969Z,1.41
2023-02-26T05:10:59.908Z,1.23
2023-02-26T05:13:29.089Z,1.29
2023-02-26T05:15:56.366Z,1.44
2023-02-26T05:18:23.265Z,1.45
2023-02-26T05:20:55.088Z,1.42
2023-02-26T05:23:22.369Z,1.39
2023-02-26T05:25:49.541Z,1.38
2023-02-26T05:28:17.107Z,1.25
2023-02-26T05:30:44.565Z,1.33
2023-02-26T05:33:11.366Z,1.36
2023-02-26T05:35:38.234Z,1.43
2023-02-26T05:38:05.103Z,1.33
2023-02-26T05:40:31.812Z,1.28
2023-02-26T05:42:58.534Z,1.15
2023-02-26T05:45:25.216Z,1.22
2023-02-26T05:47:51.840Z,1.27
2023-02-26T05:50:18.603Z,1.22
2023-02-26T05:52:45.326Z,1.15
2023-02-26T05:55:12.082Z,1.12
2023-02-26T05:57:39.132Z,1.27
2023-02-26T06:00:08.068Z,1.20
2023-02-26T06:02:41.459Z,1.14
2023-02-26T06:05:09.499Z,1.00
2023-02-26T06:07:36.172Z,1.04
2023-02-26T06:10:03.200Z,1.12
2023-02-26T06:12:30.491Z,1.15
2023-02-26T06:14:57.083Z,1.21
2023-02-26T06:17:23.718Z,1.22
2023-02-26T06:19:50.350Z,1.17
2023-02-26T06:22:17.040Z,1.17
2023-02-26T06:24:43.841Z,1.05
2023-02-26T06:27:10.648Z,1.19
2023-02-26T06:29:37.629Z,1.10
2023-02-26T06:32:05.154Z,1.20
2023-02-26T06:34:32.611Z,1.02
2023-02-26T06:36:59.482Z,1.12
2023-02-26T06:39:26.286Z,1.15
2023-02-26T06:41:53.067Z,1.24
2023-02-26T06:44:19.678Z,1.18
2023-02-26T06:46:46.417Z,1.25
2023-02-26T06:49:13.166Z,1.23
2023-02-26T06:51:40.024Z,1.25
2023-02-26T06:54:06.634Z,1.25
2023-02-26T06:56:33.365Z,1.33
2023-02-26T06:59:00.073Z,1.19
2023-02-26T07:01:27.194Z,1.34
2023-02-26T07:03:54.144Z,1.35
2023-02-26T07:06:27.537Z,1.46
2023-02-26T07:08:55.881Z,1.41
2023-02-26T07:11:22.932Z,1.27
2023-02-26T07:13:51.472Z,1.34
2023-02-26T07:16:18.977Z,1.25
2023-02-26T07:18:46.285Z,1.34
2023-02-26T07:21:13.024Z,1.39
2023-02-26T07:23:39.715Z,1.15
2023-02-26T07:26:06.395Z,1.44
2023-02-26T07:28:33.380Z,1.89
2023-02-26T07:31:00.442Z,1.93
2023-02-26T07:33:28.398Z,2.29
2023-02-26T07:35:55.172Z,2.30
2023-02-26T07:38:21.980Z,1.99
2023-02-26T07:40:48.860Z,1.94
2023-02-26T07:43:15.515Z,1.95
2023-02-26T07:45:42.320Z,1.73
2023-02-26T07:48:09.275Z,1.61
2023-02-26T07:50:35.927Z,1.69
2023-02-26T07:53:02.826Z,1.76
2023-02-26T07:55:29.984Z,1.71
2023-02-26T07:57:56.798Z,1.72
2023-02-26T08:00:23.624Z,1.82
2023-02-26T08:02:50.311Z,1.89
2023-02-26T08:05:17.522Z,2.01
2023-02-26T08:07:44.309Z,1.97
2023-02-26T08:10:11.784Z,1.94
2023-02-26T08:12:39.058Z,2.04
2023-02-26T08:15:06.715Z,2.01
2023-02-26T08:17:33.993Z,1.93
2023-02-26T08:20:00.900Z,2.02
2023-02-26T08:22:28.001Z,2.18
2023-02-26T08:24:55.720Z,2.33
2023-02-26T08:27:22.781Z,2.37
2023-02-26T08:29:50.307Z,2.44
2023-02-26T08:32:19.727Z,2.72
2023-02-26T08:34:47.121Z,2.36
2023-02-26T08:37:14.696Z,2.77
2023-02-26T08:39:41.403Z,2.95
2023-02-26T08:42:09.632Z,3.11
2023-02-26T08:44:36.777Z,3.39
2023-02-26T08:47:03.889Z,4.15
2023-02-26T08:49:30.854Z,4.76
2023-02-26T08:51:57.562Z,4.64
2023-02-26T08:54:24.998Z,4.57
2023-02-26T08:56:53.454Z,4.88
2023-02-26T08:59:20.829Z,4.45
2023-02-26T09:01:47.597Z,4.37
2023-02-26T09:04:14.564Z,4.21
2023-02-26T09:06:41.232Z,4.50
2023-02-26T09:09:08.291Z,4.50
2023-02-26T09:11:36.673Z,4.59
2023-02-26T09:14:04.465Z,4.69
2023-02-26T09:16:31.977Z,4.72
2023-02-26T09:18:58.895Z,4.82
2023-02-26T09:21:25.591Z,5.19
2023-02-26T09:23:52.321Z,5.01
2023-02-26T09:26:18.958Z,4.71
2023-02-26T09:28:45.676Z,4.43
2023-02-26T09:31:12.880Z,4.24
2023-02-26T09:33:39.676Z,4.25
2023-02-26T09:36:06.824Z,5.35
2023-02-26T09:38:35.861Z,4.72
2023-02-26T09:41:07.454Z,4.49
2023-02-26T09:43:58.764Z,4.11
2023-02-26T09:46:38.006Z,3.72
2023-02-26T09:49:19.222Z,3.75
2023-02-26T09:51:50.288Z,3.60
2023-02-26T09:54:24.190Z,3.65
2023-02-26T09:56:53.765Z,3.51
2023-02-26T09:59:20.928Z,3.47
2023-02-26T10:02:13.925Z,3.58
2023-02-26T10:05:01.075Z,3.68
2023-02-26T10:07:45.169Z,4.24
2023-02-26T10:10:52.056Z,4.59
2023-02-26T10:13:25.038Z,4.79
2023-02-26T10:15:53.697Z,5.05
2023-02-26T10:18:34.544Z,5.43
2023-02-26T10:21:09.363Z,5.30
2023-02-26T10:23:45.030Z,4.95
2023-02-26T10:26:19.310Z,4.63
2023-02-26T10:28:55.191Z,4.86
2023-02-26T10:31:28.373Z,4.50
2023-02-26T10:34:10.848Z,4.54
2023-02-26T10:36:51.480Z,4.58
2023-02-26T10:39:29.181Z,4.57
2023-02-26T10:42:01.838Z,4.75
2023-02-26T10:44:40.091Z,4.71
2023-02-26T10:47:39.719Z,4.70
2023-02-26T10:50:11.918Z,4.36
2023-02-26T10:52:39.309Z,4.05
2023-02-26T10:55:10.888Z,3.75
2023-02-26T10:57:46.712Z,3.81
2023-02-26T11:00:20.950Z,4.16
2023-02-26T11:02:52.341Z,4.13
2023-02-26T11:05:23.666Z,4.10
2023-02-26T11:07:54.947Z,4.51
2023-02-26T11:10:30.343Z,4.71
2023-02-26T11:12:58.714Z,5.25
2023-02-26T11:15:27.475Z,5.35
2023-02-26T11:17:56.946Z,4.82
2023-02-26T11:20:42.777Z,4.92
2023-02-26T11:23:16.795Z,5.40
2023-02-26T11:25:44.887Z,5.11
2023-02-26T11:28:24.808Z,5.28
2023-02-26T11:30:54.257Z,5.14
2023-02-26T11:33:36.701Z,4.84
2023-02-26T11:36:09.416Z,5.24
2023-02-26T11:38:36.738Z,5.30
2023-02-26T11:41:05.163Z,5.32
2023-02-26T11:43:45.042Z,5.38
2023-02-26T11:46:13.897Z,5.18
2023-02-26T11:48:44.408Z,5.08
2023-02-26T11:51:16.898Z,5.27
2023-02-26T11:53:55.552Z,5.10
2023-02-26T11:56:39.112Z,5.18
2023-02-26T11:59:08.606Z,5.24
2023-02-26T12:01:36.626Z,5.13
2023-02-26T12:04:04.033Z,4.98
2023-02-26T12:06:31.227Z,4.89
2023-02-26T12:08:58.302Z,4.84
2023-02-26T12:11:44.216Z,4.89
2023-02-26T12:14:30.486Z,5.11
2023-02-26T12:17:10.843Z,5.24
2023-02-26T12:19:59.329Z,5.29
2023-02-26T12:22:47.108Z,5.31
2023-02-26T12:25:22.886Z,5.21
2023-02-26T12:28:00.228Z,5.31
2023-02-26T12:31:15.634Z,5.17
2023-02-26T12:34:00.983Z,5.23
2023-02-26T12:36:31.670Z,5.42
2023-02-26T12:39:23.700Z,5.53
2023-02-26T12:42:00.307Z,5.24
2023-02-26T12:44:52.303Z,5.35
2023-02-26T12:47:32.054Z,5.41
2023-02-26T12:50:23.621Z,5.41
2023-02-26T12:53:03.609Z,5.49
2023-02-26T12:55:50.138Z,5.79
2023-02-26T12:58:50.625Z,5.50
2023-02-26T13:02:01.108Z,5.50
2023-02-26T13:05:01.959Z,5.29
2023-02-26T13:07:49.434Z,5.28
2023-02-26T13:10:19.152Z,5.35
2023-02-26T13:13:14.227Z,5.38
2023-02-26T13:15:56.823Z,5.27
2023-02-26T13:18:34.769Z,5.26
2023-02-26T13:21:24.948Z,5.06
2023-02-26T13:24:00.557Z,5.15
2023-02-26T13:26:29.105Z,5.18
2023-02-26T13:29:14.173Z,5.11
2023-02-26T13:31:45.855Z,5.23
2023-02-26T13:34:17.801Z,5.36
2023-02-26T13:36:45.601Z,5.34
2023-02-26T13:39:45.379Z,5.18
2023-02-26T13:42:38.200Z,5.05
2023-02-26T13:45:24.022Z,5.03
2023-02-26T13:48:09.532Z,5.18
2023-02-26T13:51:02.979Z,5.12
2023-02-26T13:53:35.397Z,5.10
2023-02-26T13:56:22.680Z,5.05
2023-02-26T13:59:00.350Z,5.05
2023-02-26T14:01:35.251Z,5.01
2023-02-26T14:04:22.528Z,4.92
2023-02-26T14:06:53.662Z,4.87
2023-02-26T14:09:23.515Z,4.91
2023-02-26T14:12:02.334Z,5.00
2023-02-26T14:14:37.546Z,5.13
2023-02-26T14:17:07.848Z,5.19
2023-02-26T14:19:52.206Z,5.19
2023-02-26T14:22:23.551Z,5.22
2023-02-26T14:24:56.639Z,5.41
2023-02-26T14:27:33.512Z,5.41
2023-02-26T14:30:18.166Z,5.36
2023-02-26T14:32:58.543Z,5.20
2023-02-26T14:35:29.974Z,5.25
2023-02-26T14:38:05.256Z,5.18
2023-02-26T14:40:42.840Z,5.21
2023-02-26T14:43:21.240Z,5.17
2023-02-26T14:45:50.026Z,5.23
2023-02-26T14:48:18.809Z,5.48
2023-02-26T14:51:22.922Z,5.59
2023-02-26T14:54:23.502Z,5.40
2023-02-26T14:57:11.700Z,5.23
2023-02-26T15:00:18.673Z,5.25
2023-02-26T15:02:58.298Z,5.22
2023-02-26T15:05:40.680Z,5.05
2023-02-26T15:08:20.153Z,5.07
2023-02-26T15:11:19.319Z,5.11
2023-02-26T15:14:17.559Z,5.12
2023-02-26T15:16:53.498Z,5.10
2023-02-26T15:19:53.862Z,4.94
2023-02-26T15:22:38.821Z,5.05
2023-02-26T15:25:15.562Z,5.09
2023-02-26T15:27:42.429Z,4.93
2023-02-26T15:30:16.135Z,5.06
2023-02-26T15:32:43.045Z,5.02
2023-02-26T15:35:18.354Z,5.02
2023-02-26T15:38:01.151Z,4.99
2023-02-26T15:40:32.674Z,4.83
2023-02-26T15:43:00.968Z,4.64
2023-02-26T15:45:36.308Z,4.58
2023-02-26T15:48:13.008Z,4.60
2023-02-26T15:50:43.622Z,4.50
2023-02-26T15:53:21.885Z,4.47
2023-02-26T15:55:59.469Z,4.45
2023-02-26T15:58:50.129Z,4.58
2023-02-26T16:01:20.024Z,4.41
2023-02-26T16:03:47.523Z,4.36
2023-02-26T16:06:20.482Z,4.54
2023-02-26T16:08:47.429Z,4.61
2023-02-26T16:11:15.642Z,4.64
2023-02-26T16:13:44.258Z,4.87
2023-02-26T16:16:18.224Z,5.24
2023-02-26T16:18:45.891Z,5.34
2023-02-26T16:21:23.648Z,5.20
2023-02-26T16:23:54.218Z,5.16
2023-02-26T16:26:24.583Z,5.14
2023-02-26T16:28:57.810Z,5.25
2023-02-26T16:31:27.389Z,5.18
2023-02-26T16:34:01.194Z,5.20
2023-02-26T16:36:32.954Z,5.06
2023-02-26T16:39:02.449Z,4.85
2023-02-26T16:41:33.294Z,4.96
2023-02-26T16:44:03.702Z,4.91
2023-02-26T16:46:42.590Z,4.93
2023-02-26T16:49:26.808Z,4.75
2023-02-26T16:51:56.090Z,4.64
2023-02-26T16:54:27.692Z,4.63
2023-02-26T16:57:02.762Z,4.57
2023-02-26T16:59:35.938Z,4.54
2023-02-26T17:02:15.057Z,4.56
2023-02-26T17:04:42.317Z,4.55
2023-02-26T17:07:21.219Z,4.50
2023-02-26T17:09:51.786Z,4.54
2023-02-26T17:12:40.123Z,4.58
2023-02-26T17:15:18.085Z,4.45
2023-02-26T17:17:44.948Z,4.42
2023-02-26T17:20:12.352Z,4.50
2023-02-26T17:22:42.633Z,4.50
2023-02-26T17:25:14.875Z,4.22
2023-02-26T17:27:41.722Z,4.44
2023-02-26T17:30:13.732Z,4.40
2023-02-26T17:32:40.726Z,4.31
2023-02-26T17:35:08.542Z,4.32
2023-02-26T17:37:36.064Z,4.28
2023-02-26T17:40:04.787Z,4.34
2023-02-26T17:42:31.573Z,4.34
2023-02-26T17:44:58.169Z,4.33
2023-02-26T17:47:26.582Z,4.32
2023-02-26T17:49:54.068Z,4.27
2023-02-26T17:52:20.971Z,4.34
2023-02-26T17:54:48.023Z,4.26
2023-02-26T17:57:20.630Z,4.35
2023-02-26T17:59:49.393Z,4.31
2023-02-26T18:02:23.487Z,4.38
2023-02-26T18:04:51.988Z,4.31
2023-02-26T18:07:20.654Z,4.24
2023-02-26T18:09:48.258Z,4.12
2023-02-26T18:12:17.530Z,4.34
2023-02-26T18:14:44.990Z,4.30
2023-02-26T18:17:18.122Z,4.38
2023-02-26T18:19:46.271Z,4.28
2023-02-26T18:22:14.420Z,4.26
2023-02-26T18:24:42.120Z,4.10
2023-02-26T18:27:19.406Z,4.20
2023-02-26T18:29:47.343Z,4.16
2023-02-26T18:32:24.086Z,4.17
2023-02-26T18:34:53.260Z,4.15
2023-02-26T18:37:24.531Z,4.00
2023-02-26T18:39:53.192Z,3.96
2023-02-26T18:42:26.852Z,3.96
2023-02-26T18:44:55.729Z,3.94
2023-02-26T18:47:25.664Z,3.93
2023-02-26T18:49:53.660Z,3.85
2023-02-26T18:52:22.307Z,3.92
2023-02-26T18:54:50.148Z,3.81
2023-02-26T18:57:17.306Z,3.76
2023-02-26T18:59:44.307Z,3.71
2023-02-26T19:02:16.823Z,3.68
2023-02-26T19:04:47.204Z,3.60
2023-02-26T19:07:16.103Z,3.63
2023-02-26T19:09:45.513Z,3.68
2023-02-26T19:12:20.452Z,3.58
2023-02-26T19:14:59.526Z,3.64
2023-02-26T19:17:27.354Z,3.58
2023-02-26T19:20:02.879Z,3.56
2023-02-26T19:22:37.213Z,3.53
2023-02-26T19:25:05.730Z,3.52
2023-02-26T19:27:32.777Z,3.48
2023-02-26T19:29:59.633Z,3.51
2023-02-26T19:32:27.074Z,3.53
2023-02-26T19:34:54.900Z,3.36
2023-02-26T19:37:23.360Z,3.44
2023-02-26T19:39:51.166Z,3.36
2023-02-26T19:42:19.643Z,3.45
2023-02-26T19:44:48.308Z,3.40
2023-02-26T19:47:17.726Z,3.33
2023-02-26T19:49:44.690Z,3.48
2023-02-26T19:52:12.913Z,3.44
2023-02-26T19:54:42.112Z,3.34
2023-02-26T19:57:09.094Z,3.21
2023-02-26T19:59:36.511Z,3.30
2023-02-26T20:02:05.992Z,3.30
2023-02-26T20:04:34.339Z,3.15
2023-02-26T20:07:05.766Z,3.16
2023-02-26T20:09:33.922Z,3.18
2023-02-26T20:12:01.228Z,3.21
2023-02-26T20:14:29.143Z,3.12
2023-02-26T20:16:56.784Z,3.06
2023-02-26T20:19:24.306Z,3.06
2023-02-26T20:21:53.884Z,3.06
2023-02-26T20:24:22.560Z,3.02
2023-02-26T20:26:49.849Z,3.10
2023-02-26T20:29:18.654Z,3.02
2023-02-26T20:31:50.796Z,2.95
2023-02-26T20:34:19.508Z,3.00
2023-02-26T20:36:50.835Z,2.96
2023-02-26T20:39:21.232Z,2.96
2023-02-26T20:41:50.398Z,2.86
2023-02-26T20:44:18.062Z,2.73
2023-02-26T20:46:45.341Z,2.69
2023-02-26T20:49:13.862Z,2.62
2023-02-26T20:51:42.869Z,2.54
2023-02-26T20:54:16.312Z,2.41
2023-02-26T20:56:44.312Z,2.40
2023-02-26T20:59:11.474Z,2.31
2023-02-26T21:01:39.606Z,2.30
2023-02-26T21:04:09.046Z,2.28
2023-02-26T21:06:37.673Z,2.27
2023-02-26T21:09:05.898Z,2.20
2023-02-26T21:11:36.872Z,2.16
2023-02-26T21:14:07.790Z,2.18
2023-02-26T21:16:41.648Z,2.17
2023-02-26T21:19:10.532Z,2.24
2023-02-26T21:21:44.741Z,2.16
2023-02-26T21:24:11.531Z,2.09
2023-02-26T21:26:38.427Z,2.09
2023-02-26T21:29:05.633Z,2.02
2023-02-26T21:31:32.834Z,2.02
2023-02-26T21:34:08.297Z,1.94
2023-02-26T21:36:45.319Z,1.90
2023-02-26T21:39:12.543Z,1.85
2023-02-26T21:41:39.265Z,1.87
2023-02-26T21:44:06.130Z,1.86
2023-02-26T21:46:34.099Z,1.87
2023-02-26T21:49:01.654Z,1.85
2023-02-26T21:51:28.762Z,1.81
2023-02-26T21:53:56.021Z,1.85
2023-02-26T21:56:23.428Z,1.82
2023-02-26T21:58:50.412Z,1.88
2023-02-26T22:01:18.413Z,1.87
2023-02-26T22:03:45.204Z,1.89
2023-02-26T22:06:12.512Z,1.88
2023-02-26T22:08:39.732Z,1.89
2023-02-26T22:11:06.575Z,1.87
2023-02-26T22:13:33.777Z,1.82
2023-02-26T22:16:00.882Z,1.88
2023-02-26T22:18:28.375Z,1.84
2023-02-26T22:20:56.849Z,1.86
2023-02-26T22:23:23.544Z,1.84
2023-02-26T22:25:50.616Z,1.88
2023-02-26T22:28:18.268Z,1.88
2023-02-26T22:30:45.159Z,1.88
2023-02-26T22:33:11.933Z,1.87
2023-02-26T22:35:39.084Z,1.79
2023-02-26T22:38:05.815Z,1.79
2023-02-26T22:40:33.196Z,1.83
2023-02-26T22:43:00.544Z,1.78
2023-02-26T22:45:27.720Z,1.75
2023-02-26T22:47:54.442Z,1.84
2023-02-26T22:50:22.390Z,1.75
2023-02-26T22:52:49.337Z,1.78
2023-02-26T22:55:16.445Z,1.74
2023-02-26T22:57:43.618Z,1.78
2023-02-26T23:00:15.279Z,1.79
2023-02-26T23:02:42.547Z,1.82
2023-02-26T23:05:09.490Z,1.78
2023-02-26T23:07:38.997Z,1.74
2023-02-26T23:10:08.029Z,1.77
2023-02-26T23:12:35.604Z,1.73
2023-02-26T23:15:02.993Z,1.82
2023-02-26T23:17:31.627Z,2.04
2023-02-26T23:19:58.981Z,2.00
2023-02-26T23:22:25.798Z,2.19
2023-02-26T23:24:52.798Z,2.17
2023-02-26T23:27:19.544Z,2.13
2023-02-26T23:29:46.206Z,2.20
2023-02-26T23:32:14.438Z,2.17
2023-02-26T23:34:41.730Z,2.15
2023-02-26T23:37:09.131Z,2.09
2023-02-26T23:39:36.176Z,2.10
2023-02-26T23:42:03.028Z,2.11
2023-02-26T23:44:29.627Z,2.14
2023-02-26T23:46:56.361Z,2.10
2023-02-26T23:49:23.070Z,2.17
2023-02-26T23:51:49.937Z,2.14
2023-02-26T23:54:16.655Z,2.31
2023-02-26T23:56:45.681Z,2.27
2023-02-26T23:59:13.884Z,2.17
